Time,TemperatureF,DewpointF,PressureIn,WindDirection,WindDirectionDegrees,WindSpeedMPH,WindSpeedGustMPH,Humidity,HourlyPrecipIn,Conditions,Clouds,dailyrainin,SoftwareType,DateUTC
2013-08-02 00:02:00,74.0,72.0,29.87,NNW,329,0.0,0.0,94,0.00,,,0.32,,2013-08-02 04:02:00,
2013-08-02 00:22:00,73.0,71.0,29.87,NNW,329,0.0,0.0,95,0.00,,,0.32,,2013-08-02 04:22:00,
2013-08-02 00:33:00,73.0,71.0,29.87,NNW,329,0.0,0.0,95,0.00,,,0.32,,2013-08-02 04:33:00,
2013-08-02 00:53:00,73.0,72.0,29.87,NNW,329,0.0,0.0,96,0.00,,,0.01,,2013-08-02 04:53:00,
2013-08-02 01:02:00,73.0,72.0,29.87,NNW,329,0.0,0.0,96,0.00,,,0.01,,2013-08-02 05:02:00,
2013-08-02 01:12:00,74.0,73.0,29.87,NNW,329,0.0,0.0,97,0.00,,,0.01,,2013-08-02 05:12:00,
2013-08-02 01:32:00,74.0,73.0,29.87,NNW,329,0.0,0.0,96,0.00,,,0.01,,2013-08-02 05:32:00,
2013-08-02 01:43:00,74.0,73.0,29.87,NNW,329,0.0,0.0,96,0.00,,,0.01,,2013-08-02 05:43:00,
2013-08-02 01:53:00,74.0,73.0,29.87,NNW,329,0.0,0.0,96,0.00,,,0.01,,2013-08-02 05:53:00,
2013-08-02 02:02:00,74.0,73.0,29.87,NNW,329,0.0,0.0,96,0.00,,,0.01,,2013-08-02 06:02:00,
2013-08-02 02:12:00,74.0,73.0,29.87,NNW,329,0.0,0.0,96,0.00,,,0.01,,2013-08-02 06:12:00,
2013-08-02 02:22:00,74.0,73.0,29.86,NNW,329,0.0,0.0,97,0.00,,,0.01,,2013-08-02 06:22:00,
2013-08-02 02:33:00,74.0,73.0,29.86,NNW,329,0.0,0.0,97,0.00,,,0.01,,2013-08-02 06:33:00,
2013-08-02 02:43:00,74.0,73.0,29.86,NNW,329,0.0,0.0,97,0.00,,,0.01,,2013-08-02 06:43:00,
2013-08-02 02:52:00,74.0,73.0,29.87,NNW,329,0.0,0.0,97,0.00,,,0.01,,2013-08-02 06:52:00,
2013-08-02 03:02:00,74.0,73.0,29.87,NNW,329,0.0,0.0,97,0.00,,,0.01,,2013-08-02 07:02:00,
2013-08-02 03:12:00,73.0,72.0,29.87,WNW,293,0.0,0.0,96,0.00,,,0.01,,2013-08-02 07:12:00,
2013-08-02 03:22:00,73.0,71.0,29.87,WNW,293,0.0,0.0,95,0.00,,,0.01,,2013-08-02 07:22:00,
2013-08-02 03:33:00,73.0,71.0,29.87,WNW,293,0.0,0.0,94,0.00,,,0.01,,2013-08-02 07:33:00,
2013-08-02 03:44:00,72.0,70.0,29.87,WNW,293,0.0,0.0,93,0.00,,,0.01,,2013-08-02 07:44:00,
2013-08-02 03:53:00,72.0,70.0,29.85,WNW,293,0.0,0.0,92,0.00,,,0.01,,2013-08-02 07:53:00,
2013-08-02 04:02:00,72.0,70.0,29.85,WNW,293,0.0,0.0,92,0.00,,,0.01,,2013-08-02 08:02:00,
2013-08-02 04:12:00,72.0,70.0,29.85,WNW,293,0.0,0.0,92,0.00,,,0.01,,2013-08-02 08:12:00,
2013-08-02 04:33:00,72.0,70.0,29.84,WNW,293,0.0,0.0,93,0.00,,,0.01,,2013-08-02 08:33:00,
2013-08-02 04:43:00,71.0,69.0,29.84,WNW,293,0.0,0.0,93,0.00,,,0.01,,2013-08-02 08:43:00,
2013-08-02 04:54:00,71.0,69.0,29.84,WNW,293,0.0,0.0,94,0.00,,,0.00,,2013-08-02 08:54:00,
2013-08-02 05:02:00,71.0,69.0,29.84,WNW,293,0.0,0.0,94,0.00,,,0.00,,2013-08-02 09:02:00,
2013-08-02 05:12:00,71.0,69.0,29.84,WNW,293,0.0,0.0,95,0.00,,,0.00,,2013-08-02 09:12:00,
2013-08-02 05:23:00,71.0,69.0,29.85,WNW,293,0.0,0.0,95,0.00,,,0.00,,2013-08-02 09:23:00,
2013-08-02 05:44:00,71.0,69.0,29.85,WNW,293,0.0,0.0,95,0.00,,,0.00,,2013-08-02 09:44:00,
2013-08-02 05:53:00,71.0,70.0,29.86,WNW,293,0.0,0.0,96,0.00,,,0.00,,2013-08-02 09:53:00,
2013-08-02 06:03:00,71.0,70.0,29.87,WNW,293,0.0,0.0,96,0.00,,,0.00,,2013-08-02 10:03:00,
2013-08-02 06:12:00,71.0,70.0,29.87,WNW,293,0.0,0.0,96,0.00,,,0.00,,2013-08-02 10:12:00,
2013-08-02 06:23:00,71.0,70.0,29.88,WNW,293,0.0,0.0,96,0.00,,,0.00,,2013-08-02 10:23:00,
2013-08-02 06:33:00,70.0,69.0,29.88,WNW,293,0.0,0.0,96,0.00,,,0.00,,2013-08-02 10:33:00,
2013-08-02 06:43:00,70.0,69.0,29.88,WNW,293,0.0,0.0,96,0.00,,,0.00,,2013-08-02 10:43:00,
2013-08-02 06:52:00,70.0,69.0,29.88,West,271,0.0,0.0,96,0.00,,,0.00,,2013-08-02 10:52:00,
2013-08-02 07:02:00,70.0,69.0,29.88,West,271,0.0,0.0,97,0.00,,,0.00,,2013-08-02 11:02:00,
2013-08-02 07:12:00,71.0,70.0,29.88,West,271,0.0,0.0,97,0.00,,,0.00,,2013-08-02 11:12:00,
2013-08-02 07:23:00,71.0,70.0,29.89,West,271,0.0,0.0,97,0.00,,,0.00,,2013-08-02 11:23:00,
2013-08-02 07:33:00,71.0,70.0,29.90,West,271,0.0,0.0,97,0.00,,,0.00,,2013-08-02 11:33:00,
2013-08-02 07:43:00,72.0,71.0,29.90,West,276,0.0,0.0,97,0.00,,,0.00,,2013-08-02 11:43:00,
2013-08-02 07:52:00,72.0,71.0,29.90,West,276,0.0,0.0,97,0.00,,,0.00,,2013-08-02 11:52:00,
2013-08-02 08:02:00,72.0,71.0,29.91,West,276,0.0,0.0,98,0.00,,,0.00,,2013-08-02 12:02:00,
2013-08-02 08:12:00,72.0,71.0,29.91,West,280,0.0,0.0,98,0.00,,,0.00,,2013-08-02 12:12:00,
2013-08-02 08:22:00,73.0,72.0,29.91,West,280,0.0,0.0,97,0.00,,,0.00,,2013-08-02 12:22:00,
2013-08-02 08:43:00,73.0,72.0,29.92,WNW,301,0.0,0.0,97,0.00,,,0.00,,2013-08-02 12:43:00,
2013-08-02 08:52:00,73.0,72.0,29.93,WNW,301,0.0,0.0,96,0.00,,,0.00,,2013-08-02 12:52:00,
2013-08-02 09:03:00,74.0,72.0,29.92,WNW,301,0.0,0.0,95,0.00,,,0.00,,2013-08-02 13:03:00,
2013-08-02 09:12:00,75.0,73.0,29.92,WNW,301,0.0,0.0,93,0.00,,,0.00,,2013-08-02 13:12:00,
2013-08-02 09:33:00,76.0,72.0,29.94,NE,37,0.0,0.0,87,0.00,,,0.00,,2013-08-02 13:33:00,
2013-08-02 09:43:00,77.0,70.0,29.94,WNW,291,0.0,0.0,79,0.00,,,0.00,,2013-08-02 13:43:00,
2013-08-02 10:02:00,79.0,70.0,29.94,NNW,335,0.0,0.0,74,0.00,,,0.00,,2013-08-02 14:02:00,
2013-08-02 10:22:00,79.0,70.0,29.93,ENE,68,0.0,0.0,73,0.00,,,0.00,,2013-08-02 14:22:00,
2013-08-02 10:32:00,79.0,68.0,29.93,North,5,0.0,0.0,70,0.00,,,0.00,,2013-08-02 14:32:00,
2013-08-02 10:43:00,80.0,69.0,29.93,North,5,0.0,0.0,70,0.00,,,0.00,,2013-08-02 14:43:00,
2013-08-02 10:53:00,81.0,69.0,29.94,North,5,0.0,0.0,67,0.00,,,0.00,,2013-08-02 14:53:00,
2013-08-02 11:03:00,82.0,69.0,29.94,North,5,0.0,0.0,66,0.00,,,0.00,,2013-08-02 15:03:00,
2013-08-02 11:12:00,83.0,71.0,29.94,ENE,59,0.0,0.0,67,0.00,,,0.00,,2013-08-02 15:12:00,
2013-08-02 11:22:00,83.0,70.0,29.94,ENE,61,0.0,0.0,66,0.00,,,0.00,,2013-08-02 15:22:00,
2013-08-02 11:32:00,83.0,69.0,29.94,ENE,68,0.0,0.0,63,0.00,,,0.00,,2013-08-02 15:32:00,
2013-08-02 11:43:00,84.0,71.0,29.95,ESE,120,0.0,0.0,65,0.00,,,0.00,,2013-08-02 15:43:00,
2013-08-02 11:52:00,84.0,69.0,29.94,SE,133,0.0,0.0,60,0.00,,,0.00,,2013-08-02 15:52:00,
2013-08-02 12:02:00,84.0,70.0,29.94,East,86,0.0,0.0,64,0.00,,,0.00,,2013-08-02 16:02:00,
2013-08-02 12:22:00,85.0,70.0,29.95,ENE,61,0.0,0.0,62,0.00,,,0.00,,2013-08-02 16:22:00,
2013-08-02 12:32:00,85.0,70.0,29.95,ENE,72,0.0,0.0,61,0.00,,,0.00,,2013-08-02 16:32:00,
2013-08-02 12:43:00,86.0,72.0,29.95,SSW,207,0.0,0.0,64,0.00,,,0.00,,2013-08-02 16:43:00,
2013-08-02 12:52:00,85.0,70.0,29.95,SSE,158,0.0,0.0,60,0.00,,,0.00,,2013-08-02 16:52:00,
2013-08-02 13:02:00,85.0,71.0,29.95,SSE,151,0.0,0.0,63,0.00,,,0.00,,2013-08-02 17:02:00,
2013-08-02 13:12:00,85.0,70.0,29.95,SSE,166,0.0,4.0,61,0.00,,,0.00,,2013-08-02 17:12:00,
2013-08-02 13:35:00,86.0,71.0,29.95,SSE,162,1.0,9.0,62,0.00,,,0.00,,2013-08-02 17:35:00,
2013-08-02 13:43:00,86.0,71.0,29.95,South,180,0.0,3.0,62,0.00,,,0.00,,2013-08-02 17:43:00,
2013-08-02 13:52:00,86.0,71.0,29.94,WSW,251,0.0,4.0,61,0.00,,,0.00,,2013-08-02 17:52:00,
2013-08-02 14:12:00,87.0,71.0,29.94,SSW,199,0.0,6.0,59,0.00,,,0.00,,2013-08-02 18:12:00,
2013-08-02 14:43:00,86.0,73.0,29.92,ENE,75,0.0,1.0,65,0.00,,,0.00,,2013-08-02 18:43:00,
2013-08-02 14:52:00,86.0,72.0,29.92,ENE,74,0.0,1.0,63,0.00,,,0.00,,2013-08-02 18:52:00,
2013-08-02 15:32:00,88.0,70.0,29.92,NNE,22,0.0,4.0,56,0.00,,,0.00,,2013-08-02 19:32:00,
2013-08-02 15:43:00,88.0,73.0,29.92,WNW,297,0.0,4.0,61,0.00,,,0.00,,2013-08-02 19:43:00,
2013-08-02 15:52:00,89.0,71.0,29.91,NNE,20,0.0,1.0,56,0.00,,,0.00,,2013-08-02 19:52:00,
2013-08-02 16:02:00,89.0,71.0,29.91,NW,324,0.0,1.0,55,0.00,,,0.00,,2013-08-02 20:02:00,
2013-08-02 16:43:00,90.0,71.0,29.91,NW,305,0.0,1.0,54,0.00,,,0.00,,2013-08-02 20:43:00,
2013-08-02 16:52:00,89.0,69.0,29.91,NNW,346,0.0,5.0,52,0.00,,,0.00,,2013-08-02 20:52:00,
2013-08-02 17:03:00,90.0,71.0,29.91,WNW,282,1.0,3.0,53,0.00,,,0.00,,2013-08-02 21:03:00,
2013-08-02 17:22:00,89.0,70.0,29.90,NW,305,0.0,1.0,54,0.00,,,0.00,,2013-08-02 21:22:00,
2013-08-02 17:53:00,89.0,71.0,29.91,WSW,251,0.0,5.0,55,0.00,,,0.00,,2013-08-02 21:53:00,
2013-08-02 18:03:00,88.0,71.0,29.91,West,271,0.0,1.0,57,0.00,,,0.00,,2013-08-02 22:03:00,
2013-08-02 18:22:00,87.0,69.0,29.91,NW,310,0.0,1.0,56,0.00,,,0.00,,2013-08-02 22:22:00,
2013-08-02 18:32:00,87.0,71.0,29.91,North,349,0.0,0.0,60,0.00,,,0.00,,2013-08-02 22:32:00,
2013-08-02 18:43:00,87.0,73.0,29.91,NNW,348,0.0,1.0,63,0.00,,,0.00,,2013-08-02 22:43:00,
2013-08-02 18:52:00,86.0,72.0,29.90,NNW,348,0.0,0.0,64,0.00,,,0.00,,2013-08-02 22:52:00,
2013-08-02 19:02:00,86.0,73.0,29.90,NNW,348,0.0,0.0,66,0.00,,,0.00,,2013-08-02 23:02:00,
2013-08-02 19:12:00,85.0,73.0,29.90,NNW,348,0.0,0.0,67,0.00,,,0.00,,2013-08-02 23:12:00,
2013-08-02 19:22:00,85.0,74.0,29.91,NNW,348,0.0,0.0,69,0.00,,,0.00,,2013-08-02 23:22:00,
2013-08-02 19:32:00,84.0,73.0,29.91,NNW,348,0.0,0.0,70,0.00,,,0.00,,2013-08-02 23:32:00,
2013-08-02 19:43:00,83.0,72.0,29.91,NNW,348,0.0,0.0,70,0.00,,,0.00,,2013-08-02 23:43:00,
2013-08-02 19:53:00,83.0,73.0,29.92,NNW,348,0.0,0.0,71,0.00,,,0.00,,2013-08-02 23:53:00,
2013-08-02 20:02:00,83.0,73.0,29.92,NNW,348,0.0,0.0,72,0.00,,,0.00,,2013-08-03 00:02:00,
2013-08-02 20:12:00,82.0,73.0,29.92,NNW,348,0.0,0.0,74,0.00,,,0.00,,2013-08-03 00:12:00,
2013-08-02 20:22:00,82.0,74.0,29.92,NNW,348,0.0,0.0,76,0.00,,,0.00,,2013-08-03 00:22:00,
2013-08-02 20:33:00,81.0,73.0,29.92,NNW,348,0.0,0.0,76,0.00,,,0.00,,2013-08-03 00:33:00,
2013-08-02 20:43:00,80.0,72.0,29.92,NNW,348,0.0,0.0,78,0.00,,,0.00,,2013-08-03 00:43:00,
2013-08-02 20:52:00,80.0,73.0,29.92,NNW,348,0.0,0.0,80,0.00,,,0.00,,2013-08-03 00:52:00,
2013-08-02 21:03:00,79.0,73.0,29.93,NNW,348,0.0,0.0,81,0.00,,,0.00,,2013-08-03 01:03:00,
2013-08-02 21:12:00,79.0,73.0,29.93,NNW,348,0.0,0.0,82,0.00,,,0.00,,2013-08-03 01:12:00,
2013-08-02 21:22:00,78.0,73.0,29.93,NNW,348,0.0,0.0,84,0.00,,,0.00,,2013-08-03 01:22:00,
2013-08-02 21:32:00,78.0,73.0,29.93,NNW,348,0.0,0.0,86,0.00,,,0.00,,2013-08-03 01:32:00,
2013-08-02 21:42:00,78.0,74.0,29.93,NNW,348,0.0,0.0,87,0.00,,,0.00,,2013-08-03 01:42:00,
2013-08-02 21:53:00,77.0,73.0,29.93,NNW,348,0.0,0.0,87,0.00,,,0.00,,2013-08-03 01:53:00,
2013-08-02 22:02:00,77.0,73.0,29.93,NNW,348,0.0,0.0,88,0.00,,,0.00,,2013-08-03 02:02:00,
2013-08-02 22:12:00,77.0,74.0,29.94,NNW,348,0.0,0.0,89,0.00,,,0.00,,2013-08-03 02:12:00,
2013-08-02 22:32:00,77.0,74.0,29.95,NNW,348,0.0,0.0,90,0.00,,,0.00,,2013-08-03 02:32:00,
2013-08-02 22:43:00,76.0,73.0,29.95,NNW,348,0.0,0.0,91,0.00,,,0.00,,2013-08-03 02:43:00,
2013-08-02 22:52:00,76.0,74.0,29.96,NNW,348,0.0,0.0,92,0.00,,,0.00,,2013-08-03 02:52:00,
2013-08-02 23:53:00,76.0,74.0,29.95,SE,126,0.0,0.0,93,0.00,,,0.00,,2013-08-03 03:53:00,